Time;durP1;ratioP1;P1;durP2;ratioP2;P2;SDS_P1;SDS_P2;PMS_P1;PMS_P2;Temp;Humidity;BMP_temperature;BMP_pressure;BME280_temperature;BME280_humidity;BME280_pressure;Samples;Min_cycle;Max_cycle;Signal;HPM_P1;HPM_P2
2022/12/05 00:01:24;;;;;;;20.75;11.23;;;2.50;99.90;;;;;;5042423;28;20148;-80
2022/12/05 00:03:52;;;;;;;20.65;10.38;;;2.50;99.90;;;;;;5034153;28;20386;-80
2022/12/05 00:06:19;;;;;;;19.63;10.63;;;2.40;99.90;;;;;;5034383;28;20168;-80
2022/12/05 00:08:45;;;;;;;21.88;12.18;;;2.40;99.90;;;;;;5021985;28;20538;-81
2022/12/05 00:11:18;;;;;;;19.88;11.90;;;2.40;99.90;;;;;;5035249;28;20030;-81
2022/12/05 00:13:45;;;;;;;18.38;10.63;;;2.30;99.90;;;;;;5034994;28;20041;-81
2022/12/05 00:16:13;;;;;;;22.38;11.38;;;2.30;99.90;;;;;;5017649;28;20089;-81
2022/12/05 00:18:39;;;;;;;20.25;10.93;;;2.30;99.90;;;;;;5035461;28;20068;-80
2022/12/05 00:21:05;;;;;;;18.25;10.23;;;2.30;99.90;;;;;;5027071;28;20056;-80
2022/12/05 00:23:31;;;;;;;16.35;9.60;;;2.30;99.90;;;;;;5025003;28;20036;-80
2022/12/05 00:26:01;;;;;;;19.75;10.23;;;2.20;99.90;;;;;;5016731;28;20029;-80
2022/12/05 00:28:27;;;;;;;18.55;9.82;;;2.30;99.90;;;;;;5033583;28;20473;-80
2022/12/05 00:30:53;;;;;;;15.50;9.77;;;2.40;99.90;;;;;;5034065;28;20022;-80
2022/12/05 00:33:18;;;;;;;19.27;10.43;;;2.40;99.90;;;;;;5018124;28;20979;-81
2022/12/05 00:35:44;;;;;;;17.10;10.07;;;2.40;99.90;;;;;;5035815;28;20044;-81
2022/12/05 00:38:10;;;;;;;18.73;10.73;;;2.40;99.90;;;;;;5018064;28;20040;-81
2022/12/05 00:40:36;;;;;;;16.30;8.65;;;2.40;99.90;;;;;;5047004;28;20077;-80
2022/12/05 00:43:02;;;;;;;20.75;10.18;;;2.40;99.90;;;;;;5036117;28;20025;-81
2022/12/05 00:45:28;;;;;;;17.33;9.57;;;2.40;99.90;;;;;;5040867;28;20030;-80
2022/12/05 00:47:53;;;;;;;21.40;10.75;;;2.40;99.90;;;;;;5024023;28;20100;-79
2022/12/05 00:50:19;;;;;;;18.27;10.88;;;2.40;99.90;;;;;;5036042;28;20026;-79
2022/12/05 00:52:45;;;;;;;21.77;11.38;;;2.40;99.90;;;;;;5024333;28;20056;-81
2022/12/05 00:55:10;;;;;;;21.55;11.60;;;2.40;99.90;;;;;;5036668;28;20030;-81
2022/12/05 00:57:36;;;;;;;20.83;11.70;;;2.40;99.90;;;;;;5035515;28;20030;-81
2022/12/05 01:00:04;;;;;;;17.70;10.63;;;2.40;99.90;;;;;;5036333;28;20022;-79
2022/12/05 01:02:30;;;;;;;21.73;11.52;;;2.40;99.90;;;;;;5028076;28;20477;-80
2022/12/05 01:04:56;;;;;;;21.92;12.02;;;2.40;99.90;;;;;;5040640;28;20021;-80
2022/12/05 01:07:21;;;;;;;20.77;11.68;;;2.40;99.90;;;;;;5036890;28;20056;-80
2022/12/05 01:09:47;;;;;;;18.33;10.60;;;2.40;99.90;;;;;;5022006;28;20047;-80
2022/12/05 01:12:13;;;;;;;17.15;9.75;;;2.40;99.90;;;;;;5039933;28;20052;-81
2022/12/05 01:14:38;;;;;;;17.88;10.10;;;2.30;99.90;;;;;;5039643;28;20363;-80
2022/12/05 01:17:04;;;;;;;15.45;8.43;;;2.30;99.90;;;;;;5042135;28;20108;-80
2022/12/05 01:19:31;;;;;;;17.38;9.25;;;2.30;99.90;;;;;;5025717;28;20101;-80
2022/12/05 01:21:57;;;;;;;16.25;9.20;;;2.30;99.90;;;;;;5014285;28;20025;-80
2022/12/05 01:24:24;;;;;;;23.80;11.93;;;2.40;99.90;;;;;;5039482;28;20451;-80
2022/12/05 01:26:51;;;;;;;20.30;11.10;;;2.50;99.90;;;;;;5021351;28;20095;-80
2022/12/05 01:29:18;;;;;;;21.60;12.50;;;2.50;99.90;;;;;;5039208;28;20036;-80
2022/12/05 01:31:44;;;;;;;22.73;11.85;;;2.50;99.90;;;;;;5039478;28;20018;-80
2022/12/05 01:34:12;;;;;;;22.83;11.60;;;2.40;99.90;;;;;;5039380;28;20028;-80
2022/12/05 01:36:39;;;;;;;22.90;10.70;;;2.40;99.90;;;;;;5021408;28;20040;-81
2022/12/05 01:39:07;;;;;;;21.20;11.18;;;2.40;99.90;;;;;;5022380;28;20089;-81
2022/12/05 01:41:37;;;;;;;19.85;10.25;;;2.30;99.90;;;;;;5017653;28;20053;-80
2022/12/05 01:44:05;;;;;;;24.73;12.18;;;2.30;99.90;;;;;;5034895;28;20104;-80
2022/12/05 01:46:33;;;;;;;21.15;11.05;;;2.30;99.90;;;;;;5044404;28;20057;-81
2022/12/05 01:49:08;;;;;;;23.35;10.93;;;2.30;99.90;;;;;;5022439;28;20018;-81
2022/12/05 01:51:37;;;;;;;23.38;12.43;;;2.30;99.90;;;;;;5007540;28;20052;-81
2022/12/05 01:54:04;;;;;;;21.65;11.75;;;2.30;99.90;;;;;;5038894;28;20471;-81
2022/12/05 01:56:32;;;;;;;21.95;10.93;;;2.30;99.90;;;;;;5012568;28;20065;-80
2022/12/05 01:58:59;;;;;;;22.67;11.60;;;2.30;99.90;;;;;;5038614;28;20037;-80
2022/12/05 02:01:25;;;;;;;25.52;13.43;;;2.30;99.90;;;;;;5021950;28;20025;-81
2022/12/05 02:03:54;;;;;;;21.15;12.15;;;2.30;99.90;;;;;;5045860;28;20035;-81
2022/12/05 02:06:21;;;;;;;19.60;10.57;;;2.30;99.90;;;;;;5020241;28;20415;-81
2022/12/05 02:08:48;;;;;;;20.00;11.80;;;2.30;99.90;;;;;;5038486;28;20033;-80
2022/12/05 02:11:14;;;;;;;28.70;14.10;;;2.30;99.90;;;;;;5036329;28;20036;-80
2022/12/05 02:14:07;;;;;;;31.48;17.02;;;2.40;99.90;;;;;;5038782;28;20049;-80
2022/12/05 02:16:42;;;;;;;26.88;13.98;;;2.40;99.90;;;;;;5038092;28;20022;-80
2022/12/05 02:19:11;;;;;;;25.55;14.10;;;2.50;99.90;;;;;;5020828;28;20034;-80
2022/12/05 02:22:01;;;;;;;23.02;13.18;;;2.40;99.90;;;;;;5016199;28;20082;-80
2022/12/05 02:24:50;;;;;;;35.38;16.95;;;2.40;99.90;;;;;;5019771;28;20029;-80
2022/12/05 02:27:30;;;;;;;21.60;12.50;;;2.40;99.90;;;;;;5036437;28;20029;-80
2022/12/05 02:30:06;;;;;;;26.00;12.85;;;2.40;99.90;;;;;;5037976;28;20037;-80
2022/12/05 02:33:05;;;;;;;22.67;12.27;;;2.40;99.90;;;;;;5037768;28;20045;-80
2022/12/05 02:35:45;;;;;;;23.63;12.98;;;2.40;99.90;;;;;;5037677;28;20043;-80
2022/12/05 02:38:29;;;;;;;22.73;11.95;;;2.40;99.90;;;;;;5037484;28;20547;-80
2022/12/05 02:41:34;;;;;;;25.17;13.15;;;2.40;99.90;;;;;;5037811;28;20026;-80
2022/12/05 02:44:23;;;;;;;23.02;12.13;;;2.30;99.90;;;;;;5037952;28;20117;-80
2022/12/05 02:46:51;;;;;;;23.77;12.20;;;2.20;99.90;;;;;;5019790;28;20394;-80
2022/12/05 02:49:22;;;;;;;22.35;11.30;;;2.20;99.90;;;;;;5043651;28;20109;-80
2022/12/05 02:51:53;;;;;;;24.10;12.23;;;2.20;99.90;;;;;;5020098;28;20038;-81
2022/12/05 02:54:26;;;;;;;24.85;13.43;;;2.20;99.90;;;;;;5037966;28;20017;-81
2022/12/05 02:56:52;;;;;;;;;;;2.20;99.90;;;;;;5024876;28;20029;-81
2022/12/05 02:59:18;;;;;;;22.23;12.02;;;2.20;99.90;;;;;;5040379;28;19909;-80
2022/12/05 03:01:46;;;;;;;20.38;11.40;;;2.10;99.90;;;;;;5045742;28;20025;-81
2022/12/05 03:04:13;;;;;;;26.15;12.52;;;2.10;99.90;;;;;;5044516;28;20044;-81
2022/12/05 03:06:44;;;;;;;20.83;11.48;;;2.10;99.90;;;;;;5038599;28;20124;-81
2022/12/05 03:09:38;;;;;;;23.05;11.10;;;2.10;99.90;;;;;;5037663;28;20033;-81
2022/12/05 03:12:10;;;;;;;26.92;13.13;;;2.10;99.90;;;;;;5039869;28;20130;-81
2022/12/05 03:14:42;;;;;;;24.27;12.48;;;2.10;99.90;;;;;;5045572;28;20086;-81
2022/12/05 03:17:13;;;;;;;21.88;11.50;;;2.10;99.90;;;;;;5043207;28;20037;-81
2022/12/05 03:20:05;;;;;;;24.58;12.55;;;2.10;99.90;;;;;;5034663;28;20018;-81
2022/12/05 03:22:36;;;;;;;26.42;12.88;;;2.10;99.90;;;;;;5030828;28;20026;-81
2022/12/05 03:25:03;;;;;;;25.38;11.65;;;2.10;99.90;;;;;;5047571;28;20080;-80
2022/12/05 03:27:48;;;;;;;24.45;12.18;;;2.10;99.90;;;;;;5046026;28;20048;-80
2022/12/05 03:30:18;;;;;;;24.63;12.38;;;2.10;99.90;;;;;;5046256;28;20518;-80
2022/12/05 03:33:09;;;;;;;23.58;12.10;;;2.10;99.90;;;;;;5042363;28;20025;-82
2022/12/05 03:35:40;;;;;;;24.98;12.40;;;2.10;99.90;;;;;;5030607;28;20060;-79
2022/12/05 03:38:17;;;;;;;21.95;11.15;;;2.00;99.90;;;;;;5028184;28;20017;-80
2022/12/05 03:41:14;;;;;;;20.92;11.25;;;2.00;99.90;;;;;;5041737;28;20022;-80
2022/12/05 03:44:14;;;;;;;22.65;11.50;;;2.10;99.90;;;;;;5012454;28;20049;-80
2022/12/05 03:47:03;;;;;;;23.98;12.45;;;2.20;99.90;;;;;;5046199;28;20021;-80
2022/12/05 03:49:55;;;;;;;24.73;11.50;;;2.20;99.90;;;;;;5047821;28;20032;-80
2022/12/05 03:53:13;;;;;;;24.73;13.00;;;2.10;99.90;;;;;;5028345;28;20032;-80
2022/12/05 03:55:48;;;;;;;21.58;12.27;;;2.10;99.90;;;;;;5002958;28;20032;-80
2022/12/05 03:58:21;;;;;;;21.33;12.05;;;2.20;99.90;;;;;;5040295;28;20035;-80
2022/12/05 04:00:51;;;;;;;23.77;12.95;;;2.20;99.90;;;;;;5027419;28;20029;-80
2022/12/05 04:03:24;;;;;;;21.95;11.57;;;2.20;99.90;;;;;;5011397;28;20127;-80
2022/12/05 04:05:54;;;;;;;22.10;12.02;;;2.20;99.90;;;;;;5031441;28;20021;-80
2022/12/05 04:08:44;;;;;;;26.98;13.25;;;2.30;99.90;;;;;;5040914;28;20047;-80
2022/12/05 04:11:21;;;;;;;19.75;10.85;;;2.30;99.90;;;;;;5046433;28;20033;-80
2022/12/05 04:13:51;;;;;;;20.80;11.57;;;2.30;99.90;;;;;;5023455;28;20051;-79
2022/12/05 04:19:17;;;;;;;20.17;11.40;;;2.30;99.90;;;;;;5044552;28;20048;-81
2022/12/05 04:21:46;;;;;;;20.42;11.70;;;2.30;99.90;;;;;;5044049;28;20022;-80
2022/12/05 04:27:27;;;;;;;19.73;10.63;;;2.30;99.90;;;;;;5044162;28;20086;-80
2022/12/05 04:30:05;;;;;;;19.50;10.05;;;2.40;99.90;;;;;;5026970;28;20018;-80
2022/12/05 04:32:50;;;;;;;22.00;12.15;;;2.40;99.90;;;;;;5044761;28;20072;-79
2022/12/05 04:35:24;;;;;;;21.90;11.10;;;2.40;99.90;;;;;;5043627;28;20040;-80
2022/12/05 04:37:57;;;;;;;18.70;10.73;;;2.40;99.90;;;;;;5043395;28;20021;-81
2022/12/05 04:40:47;;;;;;;22.52;10.80;;;2.40;99.90;;;;;;5027513;28;20056;-79
2022/12/05 04:43:15;;;;;;;22.70;11.15;;;2.50;99.90;;;;;;5041466;28;20025;-80
2022/12/05 04:45:42;;;;;;;19.90;10.50;;;2.40;99.90;;;;;;5029227;28;20021;-79
2022/12/05 04:48:15;;;;;;;20.88;10.75;;;2.50;99.90;;;;;;5053713;28;20026;-79
2022/12/05 04:50:43;;;;;;;18.33;9.95;;;2.60;99.90;;;;;;5022164;28;20022;-79
2022/12/05 04:53:11;;;;;;;19.13;10.85;;;2.60;99.90;;;;;;5016499;28;20037;-79
2022/12/05 04:55:41;;;;;;;19.50;10.48;;;2.50;99.90;;;;;;5029111;28;20029;-78
2022/12/05 04:58:10;;;;;;;23.77;11.50;;;2.60;99.90;;;;;;5043512;28;20018;-79
2022/12/05 05:00:56;;;;;;;18.30;10.57;;;2.60;99.90;;;;;;5038097;28;20021;-79
2022/12/05 05:03:22;;;;;;;22.52;11.43;;;2.60;99.90;;;;;;5037974;28;20039;-79
2022/12/05 05:05:51;;;;;;;22.67;10.50;;;2.60;99.90;;;;;;5036170;28;20112;-78
2022/12/05 05:08:23;;;;;;;24.30;11.68;;;2.60;99.90;;;;;;5018288;28;20029;-78
2022/12/05 05:11:06;;;;;;;19.88;10.77;;;2.60;99.90;;;;;;5045661;28;20021;-78
2022/12/05 05:13:31;;;;;;;21.05;12.15;;;2.60;99.90;;;;;;5038598;28;20032;-79
2022/12/05 05:15:57;;;;;;;22.33;11.15;;;2.60;99.90;;;;;;5041749;28;20018;-79
2022/12/05 05:18:23;;;;;;;22.02;11.35;;;2.60;99.90;;;;;;5042441;28;20017;-79
2022/12/05 05:20:48;;;;;;;20.45;11.25;;;2.70;99.90;;;;;;5036730;28;20034;-79
2022/12/05 05:23:14;;;;;;;18.63;10.10;;;2.70;99.90;;;;;;5019422;28;20040;-79
2022/12/05 05:25:40;;;;;;;24.60;11.63;;;2.70;99.90;;;;;;5035213;28;20033;-79
2022/12/05 05:28:05;;;;;;;22.60;11.77;;;2.70;99.90;;;;;;5032063;28;20059;-79
2022/12/05 05:30:31;;;;;;;20.05;11.90;;;2.70;99.90;;;;;;5033583;28;20095;-79
2022/12/05 05:32:59;;;;;;;21.98;10.82;;;2.70;99.90;;;;;;5034287;28;20025;-80
2022/12/05 05:35:24;;;;;;;18.55;9.63;;;2.70;99.90;;;;;;5029785;28;20149;-79
2022/12/05 05:37:51;;;;;;;25.23;11.02;;;2.80;99.90;;;;;;5024652;28;20067;-78
2022/12/05 05:40:17;;;;;;;23.33;11.77;;;2.80;99.90;;;;;;5041479;28;20061;-79
2022/12/05 05:42:47;;;;;;;21.90;11.25;;;2.90;99.90;;;;;;5033311;28;20412;-79
2022/12/05 05:45:14;;;;;;;23.08;12.07;;;2.90;99.90;;;;;;5034284;28;20013;-79
2022/12/05 05:47:41;;;;;;;21.88;11.13;;;2.90;99.90;;;;;;5032177;28;20072;-77
2022/12/05 05:50:08;;;;;;;21.52;11.60;;;2.90;99.90;;;;;;5050239;28;20041;-79
2022/12/05 05:52:35;;;;;;;27.45;13.15;;;2.90;99.90;;;;;;5039676;28;20104;-79
2022/12/05 05:55:02;;;;;;;22.35;11.48;;;2.90;99.90;;;;;;5021842;28;20029;-80
2022/12/05 05:57:27;;;;;;;18.90;10.25;;;2.90;99.90;;;;;;5035245;28;20085;-80
2022/12/05 05:59:54;;;;;;;23.33;10.95;;;2.90;99.90;;;;;;5051060;28;20052;-80
2022/12/05 06:02:19;;;;;;;21.88;10.48;;;2.90;99.90;;;;;;5055114;28;20021;-81
2022/12/05 06:04:46;;;;;;;16.48;9.15;;;3.00;99.90;;;;;;5041410;28;20033;-81
2022/12/05 06:07:11;;;;;;;16.67;8.32;;;3.00;99.90;;;;;;5034653;28;20029;-81
2022/12/05 06:09:37;;;;;;;19.80;11.13;;;3.10;99.90;;;;;;5042571;28;20039;-79
2022/12/05 06:12:03;;;;;;;21.02;11.50;;;3.10;99.90;;;;;;5054610;28;20037;-80
2022/12/05 06:14:29;;;;;;;18.67;9.85;;;3.10;99.90;;;;;;5047404;28;20060;-79
2022/12/05 06:16:54;;;;;;;19.75;10.52;;;3.10;99.90;;;;;;5030184;28;20026;-79
2022/12/05 06:19:20;;;;;;;25.50;12.02;;;3.10;99.90;;;;;;5046132;28;20051;-80
2022/12/05 06:21:49;;;;;;;23.70;12.65;;;3.10;99.90;;;;;;5042129;28;20044;-81
2022/12/05 06:24:15;;;;;;;20.92;10.93;;;3.10;99.90;;;;;;5042081;28;20029;-80
2022/12/05 06:26:41;;;;;;;17.77;10.60;;;3.10;99.90;;;;;;5041132;28;20022;-80
2022/12/05 06:29:06;;;;;;;22.23;10.75;;;3.10;99.90;;;;;;5039224;28;20039;-79
2022/12/05 06:31:32;;;;;;;22.90;11.35;;;3.20;99.90;;;;;;5043134;28;20036;-81
2022/12/05 06:34:03;;;;;;;20.38;10.25;;;3.20;99.90;;;;;;5059607;28;20024;-80
2022/12/05 06:36:29;;;;;;;20.58;10.45;;;3.20;99.90;;;;;;5055798;28;20478;-81
2022/12/05 06:38:58;;;;;;;19.45;9.75;;;3.20;99.90;;;;;;5055296;28;20025;-81
2022/12/05 06:41:25;;;;;;;18.98;10.45;;;3.20;99.90;;;;;;5054945;28;20120;-81
2022/12/05 06:43:57;;;;;;;20.75;11.00;;;3.20;99.90;;;;;;5036663;28;20490;-80
2022/12/05 06:46:24;;;;;;;17.08;9.75;;;3.30;99.90;;;;;;5035154;28;20025;-80
2022/12/05 06:48:55;;;;;;;22.13;10.57;;;3.30;99.90;;;;;;5036378;28;20029;-80
2022/12/05 06:51:21;;;;;;;21.70;11.40;;;3.30;99.90;;;;;;5051549;28;20074;-80
2022/12/05 06:53:46;;;;;;;17.02;9.77;;;3.30;99.90;;;;;;5058266;28;20021;-80
2022/12/05 06:56:15;;;;;;;19.80;9.98;;;3.30;99.90;;;;;;5045623;28;20025;-80
2022/12/05 06:58:42;;;;;;;18.02;11.18;;;3.30;99.90;;;;;;5036146;28;20060;-81
2022/12/05 07:04:02;;;;;;;23.77;10.68;;;3.40;99.90;;;;;;5036993;28;20040;-81
2022/12/05 07:06:28;;;;;;;21.83;11.93;;;3.50;99.90;;;;;;5035489;28;20025;-81
2022/12/05 07:08:53;;;;;;;16.85;11.27;;;3.50;99.90;;;;;;5036514;28;20032;-81
2022/12/05 07:11:19;;;;;;;18.80;11.27;;;3.50;99.90;;;;;;5036454;28;20033;-81
2022/12/05 07:13:45;;;;;;;21.30;10.98;;;3.50;99.90;;;;;;5035687;28;20025;-81
2022/12/05 07:16:11;;;;;;;17.40;9.63;;;3.50;99.90;;;;;;5035447;28;20029;-81
2022/12/05 07:18:37;;;;;;;14.52;8.95;;;3.60;99.90;;;;;;5033946;28;20033;-82
2022/12/05 07:21:05;;;;;;;17.83;10.10;;;3.60;99.90;;;;;;5021188;28;20021;-80
2022/12/05 07:23:31;;;;;;;17.27;11.13;;;3.70;99.90;;;;;;5030520;28;20018;-79
2022/12/05 07:25:57;;;;;;;18.00;9.77;;;3.70;99.90;;;;;;5031209;28;20022;-81
2022/12/05 07:28:23;;;;;;;18.55;10.50;;;3.80;99.90;;;;;;5037154;28;20045;-80
2022/12/05 07:30:57;;;;;;;19.15;9.93;;;3.80;99.90;;;;;;5035721;28;20441;-81
2022/12/05 07:33:23;;;;;;;16.13;9.68;;;3.80;99.90;;;;;;5042470;28;20018;-81
2022/12/05 07:35:48;;;;;;;16.55;10.95;;;3.90;99.90;;;;;;5034814;28;20036;-80
2022/12/05 07:38:14;;;;;;;18.63;10.10;;;3.90;99.90;;;;;;5035711;28;20104;-81
2022/12/05 07:40:41;;;;;;;16.15;9.57;;;3.90;99.90;;;;;;5038689;28;20171;-79
2022/12/05 07:43:06;;;;;;;17.13;9.82;;;3.90;99.90;;;;;;5052532;28;20021;-80
2022/12/05 07:45:34;;;;;;;20.48;10.48;;;4.00;99.90;;;;;;5068687;28;20021;-82
2022/12/05 07:48:00;;;;;;;19.13;10.80;;;4.00;99.90;;;;;;5041225;28;20094;-81
2022/12/05 07:50:25;;;;;;;18.52;10.45;;;4.00;99.90;;;;;;5049626;28;20026;-82
2022/12/05 07:52:51;;;;;;;16.17;9.32;;;4.00;99.90;;;;;;5035827;28;20093;-82
2022/12/05 07:55:17;;;;;;;14.75;8.85;;;4.00;99.90;;;;;;5040101;28;20040;-82
2022/12/05 07:57:43;;;;;;;15.02;9.70;;;4.10;99.90;;;;;;5043386;28;20397;-80
2022/12/05 08:00:09;;;;;;;14.95;7.60;;;4.10;99.90;;;;;;5038297;28;20080;-81
2022/12/05 08:02:34;;;;;;;15.00;8.50;;;4.10;99.90;;;;;;5037937;28;20097;-82
2022/12/05 08:05:00;;;;;;;12.50;7.90;;;4.10;99.90;;;;;;5050397;28;20044;-80
2022/12/05 08:07:26;;;;;;;15.02;8.25;;;4.10;99.90;;;;;;5038542;28;20025;-81
2022/12/05 08:09:52;;;;;;;17.73;10.30;;;4.20;99.90;;;;;;5041723;28;20063;-80
2022/12/05 08:12:17;;;;;;;15.57;9.43;;;4.30;99.90;;;;;;5038837;28;20025;-81
2022/12/05 08:14:43;;;;;;;14.15;9.38;;;4.30;99.90;;;;;;5059329;28;20029;-81
2022/12/05 08:17:08;;;;;;;15.13;9.65;;;4.30;99.90;;;;;;5057761;28;20031;-81
2022/12/05 08:19:34;;;;;;;16.98;9.35;;;4.30;99.90;;;;;;5059439;28;20391;-81
2022/12/05 08:22:01;;;;;;;15.55;9.10;;;4.20;99.90;;;;;;5059189;28;20078;-80
2022/12/05 08:24:26;;;;;;;12.88;8.02;;;4.20;99.90;;;;;;5034053;28;20025;-80
2022/12/05 08:26:52;;;;;;;14.15;8.23;;;4.20;99.90;;;;;;5021578;28;20021;-80
2022/12/05 08:29:20;;;;;;;14.05;7.88;;;4.30;99.90;;;;;;5036800;28;20029;-80
2022/12/05 08:31:49;;;;;;;14.82;8.15;;;4.40;99.90;;;;;;5037026;28;20022;-80
2022/12/05 08:34:17;;;;;;;14.48;8.23;;;4.40;99.90;;;;;;5037854;28;20025;-81
2022/12/05 08:36:43;;;;;;;12.20;7.85;;;4.40;99.90;;;;;;5019621;28;20383;-80
2022/12/05 08:39:13;;;;;;;12.48;7.30;;;4.50;99.90;;;;;;5039168;28;20044;-81
2022/12/05 08:41:39;;;;;;;13.25;8.07;;;4.50;99.90;;;;;;5039304;28;20526;-82
2022/12/05 08:44:07;;;;;;;11.05;7.05;;;4.50;99.90;;;;;;5044842;28;20061;-81
2022/12/05 08:46:34;;;;;;;13.35;7.93;;;4.70;99.90;;;;;;5061558;28;20032;-80
2022/12/05 08:49:00;;;;;;;13.75;7.93;;;4.80;99.90;;;;;;5056343;28;20025;-80
2022/12/05 08:51:32;;;;;;;12.75;7.75;;;4.80;99.90;;;;;;5058560;28;20549;-82
2022/12/05 08:53:58;;;;;;;13.75;8.23;;;4.80;99.90;;;;;;5057584;28;20037;-81
2022/12/05 08:56:23;;;;;;;11.93;7.80;;;4.90;99.90;;;;;;5038854;28;20029;-82
2022/12/05 08:58:49;;;;;;;14.25;8.45;;;4.80;99.90;;;;;;5031256;28;20116;-82
2022/12/05 09:01:17;;;;;;;13.70;8.18;;;4.80;99.90;;;;;;5037639;28;20021;-81
2022/12/05 09:03:43;;;;;;;14.70;8.30;;;4.70;99.90;;;;;;5050056;28;20077;-81
2022/12/05 09:06:17;;;;;;;14.57;8.90;;;4.70;99.90;;;;;;5028104;28;20044;-81
2022/12/05 09:08:43;;;;;;;13.05;7.90;;;4.70;99.90;;;;;;5038661;28;21080;-82
2022/12/05 09:11:22;;;;;;;15.48;8.82;;;4.60;99.90;;;;;;5046106;28;20029;-82
2022/12/05 09:13:49;;;;;;;11.95;8.13;;;4.50;99.90;;;;;;5039120;28;20021;-82
2022/12/05 09:16:19;;;;;;;11.52;7.60;;;4.50;99.90;;;;;;5020758;28;20025;-82
2022/12/05 09:18:46;;;;;;;13.43;8.32;;;4.50;99.90;;;;;;5043836;28;20025;-81
2022/12/05 09:21:14;;;;;;;13.23;7.88;;;4.50;99.90;;;;;;5043317;28;20045;-80
2022/12/05 09:23:40;;;;;;;13.93;8.40;;;4.60;99.90;;;;;;5042667;28;20029;-80
2022/12/05 09:26:09;;;;;;;12.95;7.80;;;4.50;99.90;;;;;;5040628;28;20041;-80
2022/12/05 09:28:35;;;;;;;12.40;7.90;;;4.50;99.90;;;;;;5042485;28;20043;-81
2022/12/05 09:31:07;;;;;;;11.93;7.47;;;4.50;99.90;;;;;;5046777;28;20064;-81
2022/12/05 09:33:35;;;;;;;10.70;7.32;;;4.60;99.90;;;;;;5047724;28;20029;-81
2022/12/05 09:36:06;;;;;;;14.43;8.10;;;4.60;99.90;;;;;;5046612;28;20021;-80
2022/12/05 09:38:32;;;;;;;12.00;8.10;;;4.50;99.90;;;;;;5032008;28;20030;-81
2022/12/05 09:45:03;;;;;;;12.07;7.53;;;4.50;99.90;;;;;;5031031;28;20048;-81
2022/12/05 09:47:47;;;;;;;9.70;7.10;;;4.50;99.90;;;;;;5047016;28;20053;-81
2022/12/05 09:50:27;;;;;;;11.90;7.32;;;4.60;99.90;;;;;;5009944;28;20032;-82
2022/12/05 09:53:04;;;;;;;10.55;7.22;;;4.60;99.90;;;;;;5009801;28;20024;-81
2022/12/05 09:55:41;;;;;;;11.52;8.05;;;4.70;99.90;;;;;;5013971;28;20052;-79
2022/12/05 09:58:27;;;;;;;11.23;7.75;;;4.70;99.90;;;;;;5028678;28;20141;-80
2022/12/05 10:01:00;;;;;;;10.93;7.43;;;4.70;99.90;;;;;;5048865;28;20025;-82
2022/12/05 10:03:32;;;;;;;10.68;7.28;;;4.70;99.90;;;;;;5054996;28;20022;-81
2022/12/05 10:05:58;;;;;;;11.20;7.15;;;4.80;99.90;;;;;;5053364;28;20041;-82
2022/12/05 10:08:32;;;;;;;9.35;6.35;;;4.90;99.90;;;;;;5063897;28;20037;-82
2022/12/05 10:11:21;;;;;;;11.88;7.85;;;5.00;99.90;;;;;;5046598;28;20028;-82
2022/12/05 10:14:05;;;;;;;9.85;6.80;;;5.00;99.90;;;;;;5038805;28;20033;-82
2022/12/05 10:16:51;;;;;;;12.30;7.82;;;5.10;99.90;;;;;;5044580;28;20051;-82
2022/12/05 10:19:31;;;;;;;9.52;6.85;;;5.00;99.90;;;;;;5026598;28;20033;-82
2022/12/05 10:22:14;;;;;;;13.27;8.95;;;5.10;99.90;;;;;;5043380;28;20035;-82
2022/12/05 10:24:55;;;;;;;10.07;7.00;;;5.20;99.90;;;;;;5025330;28;20087;-83
2022/12/05 10:27:29;;;;;;;11.27;8.00;;;5.20;99.90;;;;;;5029887;28;20029;-83
2022/12/05 10:30:15;;;;;;;11.35;7.45;;;5.20;99.90;;;;;;5046775;28;20040;-83
2022/12/05 10:32:55;;;;;;;18.25;9.80;;;5.30;99.90;;;;;;5053362;28;20021;-83
2022/12/05 10:35:23;;;;;;;17.05;9.45;;;5.40;99.90;;;;;;5045814;28;20030;-82
2022/12/05 10:37:56;;;;;;;17.90;10.15;;;5.50;99.90;;;;;;5040068;28;20017;-82
2022/12/05 10:40:31;;;;;;;12.43;8.05;;;5.50;99.90;;;;;;5039135;28;20382;-83
2022/12/05 10:42:57;;;;;;;13.32;8.88;;;5.50;99.90;;;;;;5025426;28;20474;-82
2022/12/05 10:45:23;;;;;;;11.05;7.85;;;5.50;99.90;;;;;;5041474;28;20033;-82
2022/12/05 10:47:54;;;;;;;12.43;8.45;;;5.60;99.90;;;;;;5037172;28;20025;-83
2022/12/05 10:50:20;;;;;;;19.90;11.45;;;5.70;99.90;;;;;;5023179;28;20032;-83
2022/12/05 10:52:47;;;;;;;18.75;11.45;;;5.70;99.90;;;;;;5023704;28;20424;-83
2022/12/05 10:55:16;;;;;;;16.73;10.38;;;5.70;99.90;;;;;;5022173;28;20394;-84
2022/12/05 10:57:41;;;;;;;13.02;8.55;;;5.80;99.90;;;;;;5020319;28;20013;-83
2022/12/05 11:00:14;;;;;;;11.25;7.47;;;5.90;99.90;;;;;;5021898;28;20132;-83
2022/12/05 11:02:41;;;;;;;11.00;7.57;;;6.00;99.90;;;;;;5019943;28;20018;-82
2022/12/05 11:05:07;;;;;;;11.98;7.88;;;6.10;99.90;;;;;;5036747;28;20442;-83
2022/12/05 11:07:44;;;;;;;11.60;7.93;;;6.10;99.90;;;;;;5020652;28;20431;-83
2022/12/05 11:10:22;;;;;;;10.80;7.45;;;6.20;99.90;;;;;;5038036;28;20037;-83
2022/12/05 11:12:48;;;;;;;9.85;6.85;;;6.10;99.90;;;;;;5040889;28;20135;-83
2022/12/05 11:15:18;;;;;;;10.00;6.82;;;6.20;99.90;;;;;;5064084;28;20040;-82
2022/12/05 11:17:45;;;;;;;9.55;7.25;;;6.20;99.90;;;;;;5056679;28;20014;-82
2022/12/05 11:20:19;;;;;;;14.43;7.65;;;6.30;99.90;;;;;;5058112;28;20009;-82
2022/12/05 11:22:53;;;;;;;11.48;7.43;;;6.30;99.90;;;;;;5058067;28;20029;-82
2022/12/05 11:25:28;;;;;;;9.63;7.03;;;6.30;99.90;;;;;;5054569;28;20049;-82
2022/12/05 11:27:55;;;;;;;14.63;8.70;;;6.30;99.90;;;;;;5050853;28;20043;-81
2022/12/05 11:30:24;;;;;;;13.18;8.60;;;6.20;99.90;;;;;;5036065;28;20044;-82
2022/12/05 11:32:50;;;;;;;13.68;9.45;;;6.20;99.90;;;;;;5059891;28;20017;-82
2022/12/05 11:35:24;;;;;;;13.20;8.88;;;6.30;99.90;;;;;;5072296;28;20017;-82
2022/12/05 11:38:01;;;;;;;10.48;6.90;;;6.30;99.90;;;;;;5040716;28;20018;-81
2022/12/05 11:40:43;;;;;;;10.98;7.35;;;6.40;99.90;;;;;;5040956;28;20032;-81
2022/12/05 11:43:15;;;;;;;11.00;7.43;;;6.40;99.90;;;;;;5039785;28;20037;-82
2022/12/05 11:46:04;;;;;;;10.55;7.28;;;6.40;99.90;;;;;;5041148;28;20283;-83
2022/12/05 11:48:46;;;;;;;13.13;7.55;;;6.50;99.90;;;;;;5043598;28;20022;-82
2022/12/05 11:51:18;;;;;;;11.93;8.18;;;6.60;99.90;;;;;;5041235;28;20021;-82
2022/12/05 11:53:55;;;;;;;12.57;7.32;;;6.60;99.90;;;;;;5046904;28;20021;-82
2022/12/05 11:56:47;;;;;;;11.02;7.32;;;6.60;99.90;;;;;;5043563;28;20033;-82
2022/12/05 11:59:35;;;;;;;12.32;8.02;;;6.50;99.90;;;;;;5036040;28;20509;-81
2022/12/05 12:02:12;;;;;;;14.32;8.25;;;6.30;99.90;;;;;;5038737;28;20026;-82
2022/12/05 12:04:55;;;;;;;13.25;8.88;;;6.20;99.90;;;;;;5039266;28;20033;-82
2022/12/05 12:07:32;;;;;;;12.20;8.07;;;6.10;99.90;;;;;;5020154;28;20040;-83
2022/12/05 12:10:22;;;;;;;11.18;7.30;;;6.10;99.90;;;;;;5028146;28;20025;-83
2022/12/05 12:12:48;;;;;;;10.80;6.75;;;6.20;99.90;;;;;;5023564;28;20029;-83
2022/12/05 12:15:42;;;;;;;8.65;5.82;;;6.20;99.90;;;;;;5048880;28;20496;-83
2022/12/05 12:18:42;;;;;;;11.27;6.95;;;6.20;99.90;;;;;;5040300;28;20324;-83
2022/12/05 12:21:22;;;;;;;12.95;8.07;;;6.10;99.90;;;;;;5051618;28;20025;-83
2022/12/05 12:24:06;;;;;;;13.88;8.38;;;6.10;99.90;;;;;;5044926;28;20021;-83
2022/12/05 12:26:38;;;;;;;12.75;7.95;;;6.00;99.90;;;;;;5043738;28;20060;-83
2022/12/05 12:29:18;;;;;;;14.38;7.88;;;6.00;99.90;;;;;;5042931;28;20033;-82
2022/12/05 12:32:02;;;;;;;11.27;7.78;;;5.90;99.90;;;;;;5054296;28;20470;-81
2022/12/05 12:34:56;;;;;;;11.80;6.28;;;6.00;99.90;;;;;;5022632;28;20088;-82
2022/12/05 12:37:43;;;;;;;13.18;6.50;;;6.00;99.90;;;;;;5039509;28;20022;-81
2022/12/05 12:40:25;;;;;;;10.40;6.70;;;6.00;99.90;;;;;;5040780;28;20105;-81
2022/12/05 12:43:10;;;;;;;11.23;6.55;;;6.00;99.90;;;;;;5057723;28;20032;-81
2022/12/05 12:45:38;;;;;;;8.43;6.13;;;5.90;99.90;;;;;;5044264;28;20041;-82
2022/12/05 12:48:36;;;;;;;12.70;7.00;;;6.00;99.90;;;;;;5047402;28;20032;-82
2022/12/05 12:51:02;;;;;;;15.07;6.38;;;6.00;99.90;;;;;;5052690;28;20018;-83
2022/12/05 12:53:27;;;;;;;10.02;6.97;;;6.00;99.90;;;;;;5051482;28;20048;-81
2022/12/05 12:56:29;;;;;;;9.68;6.40;;;6.00;99.90;;;;;;5054218;28;20006;-81
2022/12/05 12:59:12;;;;;;;8.68;6.30;;;6.00;99.90;;;;;;5024499;28;20033;-82
2022/12/05 13:02:17;;;;;;;11.32;5.82;;;5.90;99.90;;;;;;5022779;28;20498;-82
2022/12/05 13:04:57;;;;;;;7.43;4.50;;;5.90;99.90;;;;;;4990666;28;20033;-80
2022/12/05 13:07:38;;;;;;;8.70;5.38;;;5.90;99.90;;;;;;5017927;28;20037;-81
2022/12/05 13:10:22;;;;;;;11.35;6.38;;;5.90;99.90;;;;;;5032959;28;20022;-81
2022/12/05 13:12:49;;;;;;;7.13;5.28;;;5.90;99.90;;;;;;5043863;28;20025;-81
2022/12/05 13:15:33;;;;;;;11.48;5.68;;;5.90;99.90;;;;;;5028127;28;20053;-81
2022/12/05 13:18:00;;;;;;;9.32;5.20;;;5.90;99.90;;;;;;5044083;28;20033;-81
2022/12/05 13:20:31;;;;;;;7.70;4.57;;;5.90;99.90;;;;;;5024836;28;20022;-82